createdAt,value
2018-08-13T00:00:55.115Z,18.52
2018-08-13T00:03:23.871Z,18.46
2018-08-13T00:05:53.934Z,18.48
2018-08-13T00:08:22.707Z,18.68
2018-08-13T00:10:52.057Z,18.48
2018-08-13T00:13:20.846Z,18.44
2018-08-13T00:15:49.701Z,18.59
2018-08-13T00:18:18.449Z,18.52
2018-08-13T00:20:47.177Z,18.41
2018-08-13T00:23:15.964Z,18.53
2018-08-13T00:25:44.710Z,18.51
2018-08-13T00:28:13.385Z,18.49
2018-08-13T00:30:42.051Z,18.40
2018-08-13T00:33:11.641Z,18.43
2018-08-13T00:35:40.967Z,18.58
2018-08-13T00:38:09.664Z,18.49
2018-08-13T00:40:38.352Z,18.48
2018-08-13T00:43:07.219Z,18.51
2018-08-13T00:45:35.961Z,18.46
2018-08-13T00:48:05.308Z,18.51
2018-08-13T00:50:33.981Z,18.46
2018-08-13T00:53:02.681Z,18.50
2018-08-13T00:55:31.424Z,18.53
2018-08-13T00:58:00.111Z,18.57
2018-08-13T01:00:28.776Z,18.58
2018-08-13T01:02:57.437Z,18.62
2018-08-13T01:05:26.170Z,18.61
2018-08-13T01:07:54.877Z,18.57
2018-08-13T01:10:23.545Z,18.61
2018-08-13T01:12:53.179Z,18.69
2018-08-13T01:15:21.835Z,18.66
2018-08-13T01:17:51.715Z,18.71
2018-08-13T01:20:21.594Z,18.72
2018-08-13T01:22:50.379Z,18.69
2018-08-13T01:25:20.437Z,18.79
2018-08-13T01:27:49.165Z,18.80
2018-08-13T01:30:18.971Z,18.87
2018-08-13T01:32:47.672Z,19.00
2018-08-13T01:35:16.344Z,18.97
2018-08-13T01:37:45.057Z,19.11
2018-08-13T01:40:13.826Z,19.27
2018-08-13T01:42:42.576Z,19.37
2018-08-13T01:45:12.472Z,19.42
2018-08-13T01:47:41.737Z,19.43
2018-08-13T01:50:11.715Z,19.45
2018-08-13T01:52:42.299Z,19.41
2018-08-13T01:55:11.431Z,19.50
2018-08-13T01:57:40.137Z,19.65
2018-08-13T02:00:13.704Z,19.45
2018-08-13T02:02:42.403Z,19.35
2018-08-13T02:05:11.100Z,19.24
2018-08-13T02:07:39.811Z,19.15
2018-08-13T02:10:11.216Z,19.23
2018-08-13T02:12:40.380Z,19.00
2018-08-13T02:15:09.184Z,19.00
2018-08-13T02:17:38.013Z,18.99
2018-08-13T02:20:08.028Z,18.98
2018-08-13T02:22:38.024Z,19.10
2018-08-13T02:25:07.246Z,19.09
2018-08-13T02:27:35.965Z,19.22
2018-08-13T02:30:07.465Z,19.15
2018-08-13T02:32:36.174Z,19.17
2018-08-13T02:35:06.014Z,19.26
2018-08-13T02:37:34.753Z,19.12
2018-08-13T02:40:03.725Z,19.23
2018-08-13T02:42:32.427Z,19.25
2018-08-13T02:45:01.256Z,19.14
2018-08-13T02:47:30.019Z,19.04
2018-08-13T02:49:58.697Z,19.04
2018-08-13T02:52:27.449Z,19.01
2018-08-13T02:54:56.356Z,18.93
2018-08-13T02:57:25.113Z,18.91
2018-08-13T02:59:53.906Z,18.84
2018-08-13T03:02:22.584Z,18.78
2018-08-13T03:04:52.296Z,18.61
2018-08-13T03:07:21.020Z,18.58
2018-08-13T03:09:49.824Z,18.53
2018-08-13T03:12:18.610Z,18.63
2018-08-13T03:14:47.249Z,18.44
2018-08-13T03:17:22.771Z,18.46
2018-08-13T03:19:51.486Z,18.53
2018-08-13T03:22:20.378Z,18.40
2018-08-13T03:24:49.128Z,18.53
2018-08-13T03:27:17.845Z,18.67
2018-08-13T03:29:46.807Z,18.56
2018-08-13T03:32:15.596Z,18.53
2018-08-13T03:34:44.517Z,18.51
2018-08-13T03:37:13.294Z,18.47
2018-08-13T03:39:42.001Z,18.37
2018-08-13T03:42:12.025Z,18.29
2018-08-13T03:44:40.855Z,18.22
2018-08-13T03:47:10.005Z,18.23
2018-08-13T03:49:38.632Z,18.06
2018-08-13T03:52:07.604Z,18.05
2018-08-13T03:54:36.299Z,17.96
2018-08-13T03:57:05.324Z,17.96
2018-08-13T03:59:34.300Z,18.00
2018-08-13T04:02:03.008Z,18.06
2018-08-13T04:04:31.700Z,18.00
2018-08-13T04:07:00.654Z,18.04
2018-08-13T04:09:30.227Z,17.99
2018-08-13T04:11:59.009Z,18.07
2018-08-13T04:14:28.722Z,17.98
2018-08-13T04:17:01.097Z,17.97
2018-08-13T04:19:31.139Z,17.98
2018-08-13T04:22:00.515Z,18.10
2018-08-13T04:24:29.329Z,18.12
2018-08-13T04:26:58.634Z,18.02
2018-08-13T04:29:27.964Z,18.00
2018-08-13T04:31:56.860Z,18.06
2018-08-13T04:34:25.716Z,17.93
2018-08-13T04:36:55.400Z,18.03
2018-08-13T04:39:25.336Z,18.04
2018-08-13T04:41:54.825Z,18.04
2018-08-13T04:44:24.556Z,18.04
2018-08-13T04:46:54.724Z,18.04
2018-08-13T04:49:23.910Z,18.06
2018-08-13T04:51:53.310Z,18.14
2018-08-13T04:54:22.146Z,18.14
2018-08-13T04:56:51.024Z,18.07
2018-08-13T04:59:20.567Z,18.13
2018-08-13T05:01:49.798Z,18.14
2018-08-13T05:04:19.187Z,18.25
2018-08-13T05:06:47.934Z,18.09
2018-08-13T05:09:18.849Z,18.23
2018-08-13T05:11:48.808Z,18.32
2018-08-13T05:14:17.636Z,18.25
2018-08-13T05:16:46.522Z,18.20
2018-08-13T05:19:15.211Z,18.17
2018-08-13T05:21:43.916Z,18.29
2018-08-13T05:24:12.630Z,18.43
2018-08-13T05:26:41.889Z,18.49
2018-08-13T05:29:10.672Z,18.47
2018-08-13T05:31:39.406Z,18.67
2018-08-13T05:34:08.433Z,18.64
2018-08-13T05:36:37.191Z,18.48
2018-08-13T05:39:09.281Z,18.61
2018-08-13T05:41:38.099Z,18.62
2018-08-13T05:44:07.072Z,18.79
2018-08-13T05:46:36.124Z,18.89
2018-08-13T05:49:05.016Z,18.89
2018-08-13T05:51:33.886Z,19.00
2018-08-13T05:54:02.552Z,18.96
2018-08-13T05:56:31.289Z,18.93
2018-08-13T05:58:59.993Z,19.06
2018-08-13T06:01:28.803Z,19.12
2018-08-13T06:03:57.816Z,19.24
2018-08-13T06:06:26.479Z,19.26
2018-08-13T06:08:55.190Z,19.21
2018-08-13T06:11:23.918Z,19.22
2018-08-13T06:13:52.680Z,19.28
2018-08-13T06:16:21.384Z,19.29
2018-08-13T06:18:50.143Z,19.50
2018-08-13T06:21:18.862Z,19.46
2018-08-13T06:23:47.590Z,19.60
2018-08-13T06:26:16.339Z,19.60
2018-08-13T06:28:45.040Z,19.72
2018-08-13T06:31:14.640Z,19.70
2018-08-13T06:33:43.352Z,19.75
2018-08-13T06:36:12.173Z,19.71
2018-08-13T06:38:40.893Z,19.74
2018-08-13T06:41:09.638Z,19.89
2018-08-13T06:43:38.367Z,19.90
2018-08-13T06:46:07.221Z,19.81
2018-08-13T06:48:36.164Z,19.91
2018-08-13T06:51:04.930Z,19.87
2018-08-13T06:53:34.684Z,20.06
2018-08-13T06:56:03.453Z,19.98
2018-08-13T06:58:32.172Z,20.01
2018-08-13T07:01:00.824Z,20.09
2018-08-13T07:03:29.532Z,20.06
2018-08-13T07:05:58.282Z,20.06
2018-08-13T07:08:27.024Z,20.09
2018-08-13T07:10:55.720Z,20.19
2018-08-13T07:13:25.517Z,20.15
2018-08-13T07:15:54.258Z,20.25
2018-08-13T07:18:22.982Z,20.50
2018-08-13T07:20:51.754Z,20.54
2018-08-13T07:23:20.520Z,20.63
2018-08-13T07:25:49.248Z,20.78
2018-08-13T07:28:18.013Z,20.77
2018-08-13T07:30:46.699Z,20.87
2018-08-13T07:33:15.389Z,21.02
2018-08-13T07:35:44.166Z,21.16
2018-08-13T07:38:12.966Z,21.23
2018-08-13T07:40:41.673Z,21.19
2018-08-13T07:43:10.339Z,21.25
2018-08-13T07:45:39.315Z,21.46
2018-08-13T07:48:07.921Z,21.17
2018-08-13T07:50:36.673Z,21.23
2018-08-13T07:53:05.518Z,21.20
2018-08-13T07:55:34.238Z,21.23
2018-08-13T07:58:02.948Z,21.39
2018-08-13T08:00:31.746Z,21.39
2018-08-13T08:03:00.458Z,21.49
2018-08-13T08:05:29.174Z,21.52
2018-08-13T08:07:57.896Z,21.67
2018-08-13T08:10:26.588Z,21.68
2018-08-13T08:12:55.379Z,21.73
2018-08-13T08:15:24.082Z,21.84
2018-08-13T08:17:52.772Z,21.96
2018-08-13T08:20:22.000Z,22.12
2018-08-13T08:22:50.689Z,22.24
2018-08-13T08:25:20.804Z,22.43
2018-08-13T08:27:49.526Z,22.57
2018-08-13T08:30:18.286Z,22.80
2018-08-13T08:32:47.040Z,22.99
2018-08-13T08:35:16.865Z,22.83
2018-08-13T08:37:45.618Z,22.88
2018-08-13T08:40:17.532Z,23.11
2018-08-13T08:42:46.386Z,23.09
2018-08-13T08:45:22.018Z,23.41
2018-08-13T08:47:51.750Z,23.60
2018-08-13T08:50:21.194Z,23.72
2018-08-13T08:52:50.021Z,23.81
2018-08-13T08:55:19.465Z,24.03
2018-08-13T08:57:49.490Z,24.23
2018-08-13T09:00:21.345Z,24.11
2018-08-13T09:02:50.118Z,24.36
2018-08-13T09:05:19.051Z,24.49
2018-08-13T09:07:48.033Z,24.71
2018-08-13T09:10:16.780Z,24.88
2018-08-13T09:12:45.492Z,24.70
2018-08-13T09:15:15.878Z,24.90
2018-08-13T09:17:57.156Z,25.01
2018-08-13T09:20:37.892Z,24.79
2018-08-13T09:23:18.033Z,24.72
2018-08-13T09:25:57.999Z,25.04
2018-08-13T09:28:38.118Z,24.90
2018-08-13T09:31:18.708Z,25.01
2018-08-13T09:33:58.899Z,25.34
2018-08-13T09:36:27.990Z,25.68
2018-08-13T09:38:56.693Z,25.89
2018-08-13T09:41:25.504Z,26.26
2018-08-13T09:43:54.274Z,26.49
2018-08-13T09:46:22.995Z,27.41
2018-08-13T09:48:51.900Z,28.24
2018-08-13T09:51:20.616Z,28.94
2018-08-13T09:53:49.396Z,29.58
2018-08-13T09:56:18.271Z,30.07
2018-08-13T09:58:46.975Z,30.34
2018-08-13T10:01:15.741Z,30.39
2018-08-13T10:03:44.509Z,30.37
2018-08-13T10:06:13.385Z,30.39
2018-08-13T10:08:42.224Z,30.30
2018-08-13T10:11:11.208Z,30.19
2018-08-13T10:13:39.917Z,30.22
2018-08-13T10:16:08.790Z,29.87
2018-08-13T10:18:37.629Z,29.79
2018-08-13T10:21:06.480Z,30.34
2018-08-13T10:23:35.269Z,30.76
2018-08-13T10:26:04.031Z,32.05
2018-08-13T10:28:33.789Z,32.54
2018-08-13T10:31:02.488Z,32.91
2018-08-13T10:33:31.190Z,33.16
2018-08-13T10:35:59.939Z,32.88
2018-08-13T10:38:28.772Z,32.60
2018-08-13T10:40:57.665Z,32.00
2018-08-13T10:43:26.359Z,31.66
2018-08-13T10:45:55.503Z,31.00
2018-08-13T10:48:24.385Z,31.19
2018-08-13T10:50:53.183Z,31.20
2018-08-13T10:53:21.959Z,30.69
2018-08-13T10:55:50.644Z,30.72
2018-08-13T10:58:19.336Z,30.80
2018-08-13T11:00:48.191Z,31.01
2018-08-13T11:03:16.982Z,31.38
2018-08-13T11:05:46.193Z,31.35
2018-08-13T11:08:15.507Z,31.88
2018-08-13T11:10:44.265Z,32.48
2018-08-13T11:13:12.916Z,31.92
2018-08-13T11:15:41.641Z,32.09
2018-08-13T11:18:10.515Z,32.55
2018-08-13T11:20:39.200Z,32.98
2018-08-13T11:23:07.898Z,33.68
2018-08-13T11:25:36.725Z,33.97
2018-08-13T11:28:05.781Z,33.75
2018-08-13T11:30:34.544Z,33.03
2018-08-13T11:33:03.287Z,32.88
2018-08-13T11:35:32.150Z,33.07
2018-08-13T11:38:00.905Z,32.94
2018-08-13T11:40:29.734Z,32.67
2018-08-13T11:42:58.447Z,31.84
2018-08-13T11:45:27.191Z,32.73
2018-08-13T11:47:55.926Z,33.20
2018-08-13T11:50:24.681Z,33.56
2018-08-13T11:52:53.331Z,33.27
2018-08-13T11:55:22.118Z,32.63
2018-08-13T11:57:51.268Z,32.99
2018-08-13T12:00:20.017Z,33.28
2018-08-13T12:02:48.729Z,33.33
2018-08-13T12:05:17.496Z,32.86
2018-08-13T12:07:46.524Z,33.04
2018-08-13T12:10:15.898Z,33.02
2018-08-13T12:12:44.888Z,33.19
2018-08-13T12:15:14.781Z,33.01
2018-08-13T12:17:44.236Z,32.53
2018-08-13T12:20:16.108Z,32.53
2018-08-13T12:22:45.412Z,32.38
2018-08-13T12:25:18.199Z,32.92
2018-08-13T12:27:46.989Z,33.14
2018-08-13T12:30:16.540Z,33.15
2018-08-13T12:32:45.316Z,33.37
2018-08-13T12:35:14.224Z,33.44
2018-08-13T12:37:42.969Z,33.78
2018-08-13T12:40:11.833Z,33.77
2018-08-13T12:42:40.673Z,33.46
2018-08-13T12:45:12.220Z,32.87
2018-08-13T12:47:41.186Z,33.19
2018-08-13T12:50:12.213Z,33.32
2018-08-13T12:52:41.440Z,33.65
2018-08-13T12:55:10.861Z,34.21
2018-08-13T12:57:39.662Z,34.15
2018-08-13T13:00:12.226Z,34.18
2018-08-13T13:02:41.372Z,34.22
2018-08-13T13:05:11.550Z,33.67
2018-08-13T13:07:40.292Z,33.86
2018-08-13T13:10:11.451Z,33.75
2018-08-13T13:12:40.732Z,33.91
2018-08-13T13:15:11.159Z,33.90
2018-08-13T13:17:40.153Z,33.58
2018-08-13T13:20:10.984Z,32.71
2018-08-13T13:22:39.815Z,32.58
2018-08-13T13:25:08.522Z,32.63
2018-08-13T13:27:37.773Z,32.67
2018-08-13T13:30:08.664Z,32.22
2018-08-13T13:32:37.337Z,31.82
2018-08-13T13:35:07.005Z,31.83
2018-08-13T13:37:36.361Z,31.61
2018-08-13T13:40:07.216Z,31.94
2018-08-13T13:42:36.119Z,32.22
2018-08-13T13:45:05.448Z,32.19
2018-08-13T13:47:34.238Z,32.50
2018-08-13T13:50:03.030Z,32.66
2018-08-13T13:52:31.738Z,32.47
2018-08-13T13:55:00.485Z,32.41
2018-08-13T13:57:29.165Z,32.74
2018-08-13T13:59:57.933Z,32.61
2018-08-13T14:02:26.856Z,32.46
2018-08-13T14:04:55.541Z,32.46
2018-08-13T14:07:24.239Z,32.11
2018-08-13T14:09:52.928Z,31.78
2018-08-13T14:12:21.648Z,31.31
2018-08-13T14:14:50.318Z,31.02
2018-08-13T14:17:19.441Z,30.76
2018-08-13T14:19:48.055Z,30.61
2018-08-13T14:22:16.752Z,30.36
2018-08-13T14:24:45.440Z,30.08
2018-08-13T14:27:14.559Z,30.05
2018-08-13T14:29:43.336Z,29.94
2018-08-13T14:32:12.005Z,29.78
2018-08-13T14:34:40.787Z,29.72
2018-08-13T14:37:09.473Z,29.68
2018-08-13T14:39:40.376Z,29.65
2018-08-13T14:42:09.219Z,29.72
2018-08-13T14:44:38.630Z,29.68
2018-08-13T14:47:07.300Z,29.52
2018-08-13T14:49:36.022Z,29.62
2018-08-13T14:52:04.878Z,29.60
2018-08-13T14:54:33.571Z,29.76
2018-08-13T14:59:37.525Z,29.45
2018-08-13T15:02:06.210Z,29.29
2018-08-13T15:04:34.851Z,29.37
2018-08-13T15:07:03.623Z,29.35
2018-08-13T15:09:32.296Z,29.28
2018-08-13T15:12:00.992Z,29.26
2018-08-13T15:14:29.694Z,29.18
2018-08-13T15:16:58.406Z,29.21
2018-08-13T15:19:27.197Z,29.07
2018-08-13T15:21:55.958Z,29.12
2018-08-13T15:24:24.703Z,29.14
2018-08-13T15:26:53.425Z,29.05
2018-08-13T15:29:22.249Z,28.71
2018-08-13T15:31:50.980Z,28.10
2018-08-13T15:34:19.669Z,27.66
2018-08-13T15:36:48.380Z,27.51
2018-08-13T15:39:17.044Z,27.23
2018-08-13T15:41:45.756Z,27.35
2018-08-13T15:44:14.482Z,27.15
2018-08-13T15:46:43.167Z,26.92
2018-08-13T15:49:11.830Z,26.66
2018-08-13T15:51:40.568Z,26.45
2018-08-13T15:54:09.500Z,26.48
2018-08-13T15:56:38.248Z,26.08
2018-08-13T15:59:06.943Z,25.78
2018-08-13T16:01:35.621Z,25.58
2018-08-13T16:04:04.380Z,25.62
2018-08-13T16:06:33.138Z,25.39
2018-08-13T16:09:02.248Z,25.47
2018-08-13T16:11:30.964Z,25.24
2018-08-13T16:13:59.792Z,25.12
2018-08-13T16:16:28.515Z,24.97
2018-08-13T16:18:57.249Z,24.85
2018-08-13T16:21:25.936Z,24.84
2018-08-13T16:23:54.673Z,24.71
2018-08-13T16:26:23.735Z,24.53
2018-08-13T16:28:52.502Z,24.46
2018-08-13T16:31:21.276Z,24.36
2018-08-13T16:33:50.117Z,24.36
2018-08-13T16:36:18.904Z,24.14
2018-08-13T16:38:47.742Z,24.21
2018-08-13T16:41:16.501Z,24.00
2018-08-13T16:43:45.283Z,24.20
2018-08-13T16:46:14.002Z,24.21
2018-08-13T16:48:42.791Z,24.10
2018-08-13T16:51:11.798Z,24.12
2018-08-13T16:53:40.537Z,24.19
2018-08-13T16:56:09.296Z,24.36
2018-08-13T16:58:38.036Z,24.41
2018-08-13T17:01:06.786Z,24.42
2018-08-13T17:03:35.520Z,24.44
2018-08-13T17:06:04.208Z,24.59
2018-08-13T17:08:32.892Z,24.65
2018-08-13T17:11:01.686Z,24.72
2018-08-13T17:13:30.815Z,24.42
2018-08-13T17:15:59.684Z,24.48
2018-08-13T17:18:28.525Z,24.23
2018-08-13T17:20:57.613Z,24.18
2018-08-13T17:23:26.284Z,24.29
2018-08-13T17:25:55.027Z,24.40
2018-08-13T17:28:26.857Z,24.11
2018-08-13T17:30:57.934Z,23.94
2018-08-13T17:33:29.457Z,23.85
2018-08-13T17:36:00.508Z,23.65
2018-08-13T17:38:30.108Z,23.85
2018-08-13T17:41:02.452Z,23.87
2018-08-13T17:43:34.929Z,23.84
2018-08-13T17:46:05.266Z,23.87
2018-08-13T17:48:35.895Z,23.96
2018-08-13T17:51:06.358Z,24.01
2018-08-13T17:53:38.126Z,24.01
2018-08-13T17:56:08.500Z,24.04
2018-08-13T17:58:38.888Z,23.74
2018-08-13T18:01:08.931Z,23.82
2018-08-13T18:03:39.193Z,23.97
2018-08-13T18:06:09.669Z,23.89
2018-08-13T18:08:39.815Z,23.87
2018-08-13T18:11:10.320Z,23.76
2018-08-13T18:13:40.732Z,23.94
2018-08-13T18:16:12.400Z,23.84
2018-08-13T18:18:42.697Z,23.65
2018-08-13T18:21:13.687Z,23.79
2018-08-13T18:23:44.901Z,23.74
2018-08-13T18:26:15.696Z,23.44
2018-08-13T18:28:46.384Z,23.29
2018-08-13T18:31:18.723Z,23.40
2018-08-13T18:33:49.388Z,23.35
2018-08-13T18:36:20.813Z,23.28
2018-08-13T18:38:53.025Z,23.47
2018-08-13T18:41:23.726Z,23.35
2018-08-13T18:43:53.688Z,23.25
2018-08-13T18:46:23.275Z,23.34
2018-08-13T18:48:54.037Z,23.28
2018-08-13T18:51:25.108Z,23.36
2018-08-13T18:53:56.518Z,23.50
2018-08-13T18:56:26.375Z,23.37
2018-08-13T18:58:55.222Z,23.43
2018-08-13T19:01:23.973Z,23.29
2018-08-13T19:03:53.944Z,23.34
2018-08-13T19:06:22.713Z,23.40
2018-08-13T19:08:51.563Z,23.24
2018-08-13T19:11:20.281Z,23.16
2018-08-13T19:13:49.025Z,22.84
2018-08-13T19:16:17.720Z,22.41
2018-08-13T19:18:46.484Z,22.51
2018-08-13T19:21:15.174Z,22.65
2018-08-13T19:23:43.844Z,22.73
2018-08-13T19:26:12.578Z,22.76
2018-08-13T19:28:41.298Z,22.63
2018-08-13T19:31:10.089Z,22.54
2018-08-13T19:33:38.920Z,22.43
2018-08-13T19:36:07.728Z,22.23
2018-08-13T19:38:36.470Z,22.18
2018-08-13T19:41:05.440Z,22.22
2018-08-13T19:43:34.415Z,22.08
2018-08-13T19:46:03.200Z,21.49
2018-08-13T19:48:32.063Z,21.57
2018-08-13T19:51:00.801Z,21.74
2018-08-13T19:53:29.788Z,21.49
2018-08-13T19:55:58.583Z,21.51
2018-08-13T19:58:27.477Z,21.52
2018-08-13T20:00:56.218Z,21.32
2018-08-13T20:03:24.957Z,21.38
2018-08-13T20:05:53.794Z,21.54
2018-08-13T20:08:22.563Z,21.60
2018-08-13T20:10:51.240Z,21.72
2018-08-13T20:13:19.975Z,21.64
2018-08-13T20:15:48.799Z,21.28
2018-08-13T20:18:17.595Z,21.16
2018-08-13T20:20:46.376Z,21.18
2018-08-13T20:23:15.062Z,21.30
2018-08-13T20:25:43.785Z,21.40
2018-08-13T20:28:12.473Z,21.35
2018-08-13T20:30:41.773Z,21.31
2018-08-13T20:33:10.484Z,21.08
2018-08-13T20:35:39.450Z,21.14
2018-08-13T20:38:08.141Z,21.17
2018-08-13T20:40:37.067Z,21.21
2018-08-13T20:43:06.031Z,21.16
2018-08-13T20:45:34.709Z,21.05
2018-08-13T20:48:03.436Z,21.01
2018-08-13T20:50:32.156Z,21.07
2018-08-13T20:53:00.896Z,21.11
2018-08-13T20:55:30.030Z,21.17
2018-08-13T20:58:00.888Z,21.23
2018-08-13T21:00:30.876Z,21.22
2018-08-13T21:02:59.612Z,21.32
2018-08-13T21:05:28.336Z,21.18
2018-08-13T21:07:57.033Z,21.21
2018-08-13T21:10:26.158Z,21.17
2018-08-13T21:12:55.663Z,21.24
2018-08-13T21:15:24.357Z,21.37
2018-08-13T21:17:53.076Z,21.36
2018-08-13T21:20:25.756Z,21.43
2018-08-13T21:22:54.685Z,21.35
2018-08-13T21:25:23.391Z,21.23
2018-08-13T21:27:52.163Z,21.27
2018-08-13T21:30:20.916Z,21.08
2018-08-13T21:32:49.897Z,21.13
2018-08-13T21:35:20.517Z,21.13
2018-08-13T21:37:49.670Z,21.15
2018-08-13T21:40:18.373Z,21.23
2018-08-13T21:42:47.458Z,21.09
2018-08-13T21:45:16.154Z,21.02
2018-08-13T21:47:44.903Z,21.20
2018-08-13T21:50:19.004Z,21.23
2018-08-13T21:52:48.898Z,21.06
2018-08-13T21:55:17.604Z,21.10
2018-08-13T21:57:46.399Z,21.10
2018-08-13T22:00:29.652Z,21.09
2018-08-13T22:03:01.608Z,21.09
2018-08-13T22:05:30.424Z,21.10
2018-08-13T22:07:59.528Z,21.07
2018-08-13T22:10:28.289Z,21.13
2018-08-13T22:12:57.001Z,21.01
2018-08-13T22:15:28.556Z,20.91
2018-08-13T22:17:58.909Z,20.78
2018-08-13T22:20:28.309Z,20.77
2018-08-13T22:22:58.120Z,20.63
2018-08-13T22:25:31.555Z,20.45
2018-08-13T22:28:00.466Z,20.50
2018-08-13T22:30:30.481Z,20.55
2018-08-13T22:32:59.268Z,20.51
2018-08-13T22:35:27.981Z,20.41
2018-08-13T22:37:56.708Z,20.54
2018-08-13T22:40:25.392Z,20.57
2018-08-13T22:42:54.107Z,20.45
2018-08-13T22:45:23.791Z,20.53
2018-08-13T22:47:52.685Z,20.54
2018-08-13T22:50:21.372Z,20.69
2018-08-13T22:52:50.102Z,20.62
2018-08-13T22:55:19.288Z,20.59
2018-08-13T22:57:48.510Z,20.55
2018-08-13T23:00:18.472Z,20.61
2018-08-13T23:02:48.031Z,20.55
2018-08-13T23:05:20.838Z,20.53
2018-08-13T23:07:49.630Z,20.50
2018-08-13T23:10:19.968Z,20.35
2018-08-13T23:12:49.969Z,20.33
2018-08-13T23:15:18.861Z,20.39
2018-08-13T23:17:47.758Z,20.48
2018-08-13T23:20:19.536Z,20.43
2018-08-13T23:22:56.700Z,20.45
2018-08-13T23:25:25.578Z,20.33
2018-08-13T23:27:55.381Z,20.35
2018-08-13T23:30:24.138Z,20.26
2018-08-13T23:32:53.889Z,20.47
2018-08-13T23:35:23.301Z,20.40
2018-08-13T23:37:52.136Z,20.40
2018-08-13T23:40:20.893Z,20.36
2018-08-13T23:42:49.604Z,20.36
2018-08-13T23:45:20.563Z,20.43
2018-08-13T23:47:49.445Z,20.33
2018-08-13T23:50:19.900Z,20.39
2018-08-13T23:52:49.745Z,20.29
2018-08-13T23:55:25.448Z,20.26
2018-08-13T23:57:54.583Z,20.25
